sensor_id;sensor_type;location;lat;lon;timestamp;P1;durP1;ratioP1;P2;durP2;ratioP2
37903;SDS011;23738;50.422;18.758;2022-08-07T00:01:31;5.50;;;4.43;;
37903;SDS011;23738;50.422;18.758;2022-08-07T00:03:57;4.30;;;3.90;;
37903;SDS011;23738;50.422;18.758;2022-08-07T00:06:24;5.03;;;3.83;;
37903;SDS011;23738;50.422;18.758;2022-08-07T00:08:50;5.62;;;3.75;;
37903;SDS011;23738;50.422;18.758;2022-08-07T00:11:16;6.00;;;4.62;;
37903;SDS011;23738;50.422;18.758;2022-08-07T00:13:42;5.87;;;5.33;;
37903;SDS011;23738;50.422;18.758;2022-08-07T00:16:09;7.87;;;5.53;;
37903;SDS011;23738;50.422;18.758;2022-08-07T00:18:36;7.12;;;5.47;;
37903;SDS011;23738;50.422;18.758;2022-08-07T00:21:03;6.20;;;5.20;;
37903;SDS011;23738;50.422;18.758;2022-08-07T00:23:32;6.33;;;5.80;;
37903;SDS011;23738;50.422;18.758;2022-08-07T00:26:01;8.73;;;5.37;;
37903;SDS011;23738;50.422;18.758;2022-08-07T00:28:29;7.30;;;5.78;;
37903;SDS011;23738;50.422;18.758;2022-08-07T00:30:57;6.00;;;5.55;;
37903;SDS011;23738;50.422;18.758;2022-08-07T00:33:23;6.42;;;5.87;;
37903;SDS011;23738;50.422;18.758;2022-08-07T00:35:54;5.83;;;5.10;;
37903;SDS011;23738;50.422;18.758;2022-08-07T00:38:21;5.85;;;5.35;;
37903;SDS011;23738;50.422;18.758;2022-08-07T00:40:47;5.60;;;5.00;;
37903;SDS011;23738;50.422;18.758;2022-08-07T00:43:14;6.20;;;5.42;;
37903;SDS011;23738;50.422;18.758;2022-08-07T00:45:40;6.90;;;6.20;;
37903;SDS011;23738;50.422;18.758;2022-08-07T00:48:07;6.10;;;5.58;;
37903;SDS011;23738;50.422;18.758;2022-08-07T00:50:36;5.92;;;5.42;;
37903;SDS011;23738;50.422;18.758;2022-08-07T00:53:03;6.55;;;5.70;;
37903;SDS011;23738;50.422;18.758;2022-08-07T00:55:29;7.67;;;5.75;;
37903;SDS011;23738;50.422;18.758;2022-08-07T00:57:56;6.12;;;4.60;;
37903;SDS011;23738;50.422;18.758;2022-08-07T01:00:22;6.20;;;5.60;;
37903;SDS011;23738;50.422;18.758;2022-08-07T01:02:48;5.95;;;5.40;;
37903;SDS011;23738;50.422;18.758;2022-08-07T01:05:15;7.25;;;6.55;;
37903;SDS011;23738;50.422;18.758;2022-08-07T01:07:41;12.78;;;6.95;;
37903;SDS011;23738;50.422;18.758;2022-08-07T01:10:08;6.83;;;5.83;;
37903;SDS011;23738;50.422;18.758;2022-08-07T01:12:35;6.35;;;5.53;;
37903;SDS011;23738;50.422;18.758;2022-08-07T01:15:02;6.37;;;4.80;;
37903;SDS011;23738;50.422;18.758;2022-08-07T01:17:30;7.07;;;5.87;;
37903;SDS011;23738;50.422;18.758;2022-08-07T01:20:00;12.90;;;6.40;;
37903;SDS011;23738;50.422;18.758;2022-08-07T01:22:36;10.38;;;7.37;;
37903;SDS011;23738;50.422;18.758;2022-08-07T01:25:03;8.58;;;6.33;;
37903;SDS011;23738;50.422;18.758;2022-08-07T01:27:31;6.70;;;6.10;;
37903;SDS011;23738;50.422;18.758;2022-08-07T01:29:57;8.60;;;5.97;;
37903;SDS011;23738;50.422;18.758;2022-08-07T01:32:23;5.58;;;5.10;;
37903;SDS011;23738;50.422;18.758;2022-08-07T01:34:49;6.00;;;5.40;;
37903;SDS011;23738;50.422;18.758;2022-08-07T01:37:15;6.37;;;5.45;;
37903;SDS011;23738;50.422;18.758;2022-08-07T01:39:43;6.33;;;5.72;;
37903;SDS011;23738;50.422;18.758;2022-08-07T01:42:11;6.75;;;5.90;;
37903;SDS011;23738;50.422;18.758;2022-08-07T01:44:40;7.22;;;6.53;;
37903;SDS011;23738;50.422;18.758;2022-08-07T01:47:06;6.15;;;4.80;;
37903;SDS011;23738;50.422;18.758;2022-08-07T01:49:33;5.35;;;4.95;;
37903;SDS011;23738;50.422;18.758;2022-08-07T01:52:00;6.17;;;5.62;;
37903;SDS011;23738;50.422;18.758;2022-08-07T01:54:28;5.33;;;4.83;;
37903;SDS011;23738;50.422;18.758;2022-08-07T01:57:02;6.92;;;5.55;;
37903;SDS011;23738;50.422;18.758;2022-08-07T01:59:43;6.80;;;6.12;;
37903;SDS011;23738;50.422;18.758;2022-08-07T02:02:14;5.70;;;5.20;;
37903;SDS011;23738;50.422;18.758;2022-08-07T02:04:53;4.70;;;4.30;;
37903;SDS011;23738;50.422;18.758;2022-08-07T02:07:29;5.97;;;5.47;;
37903;SDS011;23738;50.422;18.758;2022-08-07T02:09:59;6.15;;;5.65;;
37903;SDS011;23738;50.422;18.758;2022-08-07T02:12:28;5.78;;;5.28;;
37903;SDS011;23738;50.422;18.758;2022-08-07T02:14:58;7.62;;;5.75;;
37903;SDS011;23738;50.422;18.758;2022-08-07T02:17:26;5.65;;;5.15;;
37903;SDS011;23738;50.422;18.758;2022-08-07T02:19:52;4.58;;;4.17;;
37903;SDS011;23738;50.422;18.758;2022-08-07T02:22:20;5.60;;;5.10;;
37903;SDS011;23738;50.422;18.758;2022-08-07T02:24:49;5.87;;;5.17;;
37903;SDS011;23738;50.422;18.758;2022-08-07T02:27:17;8.00;;;6.15;;
37903;SDS011;23738;50.422;18.758;2022-08-07T02:29:49;7.25;;;5.97;;
37903;SDS011;23738;50.422;18.758;2022-08-07T02:32:16;6.50;;;5.50;;
37903;SDS011;23738;50.422;18.758;2022-08-07T02:34:44;5.60;;;4.78;;
37903;SDS011;23738;50.422;18.758;2022-08-07T02:37:12;7.25;;;4.40;;
37903;SDS011;23738;50.422;18.758;2022-08-07T02:39:40;5.45;;;4.12;;
37903;SDS011;23738;50.422;18.758;2022-08-07T02:42:09;5.90;;;4.45;;
37903;SDS011;23738;50.422;18.758;2022-08-07T02:44:37;5.50;;;5.10;;
37903;SDS011;23738;50.422;18.758;2022-08-07T02:47:06;7.15;;;5.65;;
37903;SDS011;23738;50.422;18.758;2022-08-07T02:49:33;5.37;;;4.87;;
37903;SDS011;23738;50.422;18.758;2022-08-07T02:52:00;5.60;;;5.08;;
37903;SDS011;23738;50.422;18.758;2022-08-07T02:54:29;4.70;;;3.72;;
37903;SDS011;23738;50.422;18.758;2022-08-07T02:56:58;5.10;;;4.55;;
37903;SDS011;23738;50.422;18.758;2022-08-07T02:59:26;5.22;;;4.83;;
37903;SDS011;23738;50.422;18.758;2022-08-07T03:01:54;6.08;;;4.85;;
37903;SDS011;23738;50.422;18.758;2022-08-07T03:04:22;6.28;;;5.08;;
37903;SDS011;23738;50.422;18.758;2022-08-07T03:06:48;5.45;;;4.95;;
37903;SDS011;23738;50.422;18.758;2022-08-07T03:09:16;4.85;;;4.42;;
37903;SDS011;23738;50.422;18.758;2022-08-07T03:11:43;4.33;;;3.60;;
37903;SDS011;23738;50.422;18.758;2022-08-07T03:14:10;4.22;;;3.75;;
37903;SDS011;23738;50.422;18.758;2022-08-07T03:16:37;4.97;;;4.50;;
37903;SDS011;23738;50.422;18.758;2022-08-07T03:19:03;5.22;;;4.70;;
37903;SDS011;23738;50.422;18.758;2022-08-07T03:21:29;5.80;;;5.17;;
37903;SDS011;23738;50.422;18.758;2022-08-07T03:23:55;4.92;;;4.42;;
37903;SDS011;23738;50.422;18.758;2022-08-07T03:26:24;6.75;;;4.20;;
37903;SDS011;23738;50.422;18.758;2022-08-07T03:28:54;4.33;;;3.65;;
37903;SDS011;23738;50.422;18.758;2022-08-07T03:31:23;4.87;;;4.45;;
37903;SDS011;23738;50.422;18.758;2022-08-07T03:33:58;9.28;;;5.12;;
37903;SDS011;23738;50.422;18.758;2022-08-07T03:36:24;10.20;;;5.28;;
37903;SDS011;23738;50.422;18.758;2022-08-07T03:38:52;7.62;;;5.12;;
37903;SDS011;23738;50.422;18.758;2022-08-07T03:41:29;8.70;;;4.50;;
37903;SDS011;23738;50.422;18.758;2022-08-07T03:43:56;4.50;;;4.10;;
37903;SDS011;23738;50.422;18.758;2022-08-07T03:46:22;7.80;;;3.58;;
37903;SDS011;23738;50.422;18.758;2022-08-07T03:48:50;6.17;;;4.10;;
37903;SDS011;23738;50.422;18.758;2022-08-07T03:51:16;6.62;;;4.37;;
37903;SDS011;23738;50.422;18.758;2022-08-07T03:53:45;9.65;;;5.78;;
37903;SDS011;23738;50.422;18.758;2022-08-07T03:56:11;5.47;;;4.83;;
37903;SDS011;23738;50.422;18.758;2022-08-07T03:58:42;6.20;;;4.83;;
37903;SDS011;23738;50.422;18.758;2022-08-07T04:01:08;5.12;;;4.03;;
37903;SDS011;23738;50.422;18.758;2022-08-07T04:03:35;4.08;;;3.47;;
37903;SDS011;23738;50.422;18.758;2022-08-07T04:06:01;6.45;;;4.72;;
37903;SDS011;23738;50.422;18.758;2022-08-07T04:08:28;4.25;;;3.87;;
37903;SDS011;23738;50.422;18.758;2022-08-07T04:10:54;6.05;;;5.37;;
37903;SDS011;23738;50.422;18.758;2022-08-07T04:13:21;6.17;;;4.53;;
37903;SDS011;23738;50.422;18.758;2022-08-07T04:15:48;6.78;;;3.80;;
37903;SDS011;23738;50.422;18.758;2022-08-07T04:18:14;5.87;;;4.20;;
37903;SDS011;23738;50.422;18.758;2022-08-07T04:20:40;6.20;;;4.15;;
37903;SDS011;23738;50.422;18.758;2022-08-07T04:23:07;6.33;;;5.50;;
37903;SDS011;23738;50.422;18.758;2022-08-07T04:25:36;7.15;;;4.60;;
37903;SDS011;23738;50.422;18.758;2022-08-07T04:28:05;6.35;;;5.20;;
37903;SDS011;23738;50.422;18.758;2022-08-07T04:30:32;6.80;;;5.00;;
37903;SDS011;23738;50.422;18.758;2022-08-07T04:32:59;8.43;;;4.80;;
37903;SDS011;23738;50.422;18.758;2022-08-07T04:35:31;5.97;;;4.10;;
37903;SDS011;23738;50.422;18.758;2022-08-07T04:37:57;6.55;;;3.77;;
37903;SDS011;23738;50.422;18.758;2022-08-07T04:40:22;7.05;;;4.67;;
37903;SDS011;23738;50.422;18.758;2022-08-07T04:42:48;6.90;;;4.70;;
37903;SDS011;23738;50.422;18.758;2022-08-07T04:47:54;7.20;;;4.65;;
37903;SDS011;23738;50.422;18.758;2022-08-07T04:50:38;7.05;;;4.00;;
37903;SDS011;23738;50.422;18.758;2022-08-07T04:53:41;4.45;;;3.45;;
37903;SDS011;23738;50.422;18.758;2022-08-07T04:56:14;7.08;;;4.00;;
37903;SDS011;23738;50.422;18.758;2022-08-07T05:01:39;6.47;;;4.50;;
37903;SDS011;23738;50.422;18.758;2022-08-07T05:04:20;5.62;;;4.40;;
37903;SDS011;23738;50.422;18.758;2022-08-07T05:09:58;6.05;;;4.12;;
37903;SDS011;23738;50.422;18.758;2022-08-07T05:12:39;7.53;;;3.83;;
37903;SDS011;23738;50.422;18.758;2022-08-07T05:15:23;5.75;;;3.65;;
37903;SDS011;23738;50.422;18.758;2022-08-07T05:17:50;5.15;;;4.42;;
37903;SDS011;23738;50.422;18.758;2022-08-07T05:20:21;7.22;;;4.28;;
37903;SDS011;23738;50.422;18.758;2022-08-07T05:22:58;6.80;;;4.25;;
37903;SDS011;23738;50.422;18.758;2022-08-07T05:25:46;9.73;;;4.30;;
37903;SDS011;23738;50.422;18.758;2022-08-07T05:28:15;7.25;;;3.90;;
37903;SDS011;23738;50.422;18.758;2022-08-07T05:30:42;5.97;;;4.47;;
37903;SDS011;23738;50.422;18.758;2022-08-07T05:33:09;7.60;;;4.65;;
37903;SDS011;23738;50.422;18.758;2022-08-07T05:35:38;6.95;;;4.78;;
37903;SDS011;23738;50.422;18.758;2022-08-07T05:38:04;6.53;;;4.62;;
37903;SDS011;23738;50.422;18.758;2022-08-07T05:40:33;8.70;;;5.15;;
37903;SDS011;23738;50.422;18.758;2022-08-07T05:43:01;11.05;;;5.33;;
37903;SDS011;23738;50.422;18.758;2022-08-07T05:45:27;10.32;;;5.20;;
37903;SDS011;23738;50.422;18.758;2022-08-07T05:47:55;7.40;;;4.95;;
37903;SDS011;23738;50.422;18.758;2022-08-07T05:50:21;6.10;;;4.42;;
37903;SDS011;23738;50.422;18.758;2022-08-07T05:52:48;6.87;;;4.75;;
37903;SDS011;23738;50.422;18.758;2022-08-07T05:55:14;9.45;;;5.22;;
37903;SDS011;23738;50.422;18.758;2022-08-07T05:57:40;8.63;;;4.70;;
37903;SDS011;23738;50.422;18.758;2022-08-07T06:00:07;10.80;;;4.92;;
37903;SDS011;23738;50.422;18.758;2022-08-07T06:02:35;7.53;;;4.53;;
37903;SDS011;23738;50.422;18.758;2022-08-07T06:06:52;11.18;;;4.00;;
37903;SDS011;23738;50.422;18.758;2022-08-07T06:09:18;6.30;;;3.72;;
37903;SDS011;23738;50.422;18.758;2022-08-07T06:11:44;6.22;;;4.00;;
37903;SDS011;23738;50.422;18.758;2022-08-07T06:14:10;8.70;;;4.58;;
37903;SDS011;23738;50.422;18.758;2022-08-07T06:16:37;6.47;;;3.57;;
37903;SDS011;23738;50.422;18.758;2022-08-07T06:19:04;8.83;;;4.12;;
37903;SDS011;23738;50.422;18.758;2022-08-07T06:21:31;7.47;;;3.50;;
37903;SDS011;23738;50.422;18.758;2022-08-07T06:23:57;7.67;;;3.90;;
37903;SDS011;23738;50.422;18.758;2022-08-07T06:26:28;7.47;;;3.58;;
37903;SDS011;23738;50.422;18.758;2022-08-07T06:28:55;9.20;;;3.72;;
37903;SDS011;23738;50.422;18.758;2022-08-07T06:31:24;9.23;;;3.72;;
37903;SDS011;23738;50.422;18.758;2022-08-07T06:33:51;6.45;;;4.55;;
37903;SDS011;23738;50.422;18.758;2022-08-07T06:36:17;11.95;;;4.45;;
37903;SDS011;23738;50.422;18.758;2022-08-07T06:38:43;8.30;;;4.55;;
37903;SDS011;23738;50.422;18.758;2022-08-07T06:41:22;6.80;;;4.00;;
37903;SDS011;23738;50.422;18.758;2022-08-07T06:43:58;11.25;;;4.25;;
37903;SDS011;23738;50.422;18.758;2022-08-07T06:46:26;9.20;;;4.42;;
37903;SDS011;23738;50.422;18.758;2022-08-07T06:48:52;5.87;;;4.25;;
37903;SDS011;23738;50.422;18.758;2022-08-07T06:51:19;7.08;;;3.40;;
37903;SDS011;23738;50.422;18.758;2022-08-07T06:53:49;7.47;;;3.42;;
37903;SDS011;23738;50.422;18.758;2022-08-07T06:56:17;5.45;;;2.72;;
37903;SDS011;23738;50.422;18.758;2022-08-07T06:58:46;4.33;;;2.87;;
37903;SDS011;23738;50.422;18.758;2022-08-07T07:01:13;5.53;;;2.65;;
37903;SDS011;23738;50.422;18.758;2022-08-07T07:03:40;3.98;;;2.25;;
37903;SDS011;23738;50.422;18.758;2022-08-07T07:06:07;7.28;;;2.90;;
37903;SDS011;23738;50.422;18.758;2022-08-07T07:08:34;7.03;;;3.00;;
37903;SDS011;23738;50.422;18.758;2022-08-07T07:11:02;4.85;;;2.58;;
37903;SDS011;23738;50.422;18.758;2022-08-07T07:13:35;5.30;;;2.00;;
37903;SDS011;23738;50.422;18.758;2022-08-07T07:16:01;3.25;;;1.80;;
37903;SDS011;23738;50.422;18.758;2022-08-07T07:18:38;3.45;;;1.35;;
37903;SDS011;23738;50.422;18.758;2022-08-07T07:21:07;3.37;;;1.80;;
37903;SDS011;23738;50.422;18.758;2022-08-07T07:23:54;5.70;;;1.60;;
37903;SDS011;23738;50.422;18.758;2022-08-07T07:26:21;6.03;;;2.37;;
37903;SDS011;23738;50.422;18.758;2022-08-07T07:28:59;6.37;;;2.15;;
37903;SDS011;23738;50.422;18.758;2022-08-07T07:31:30;4.05;;;1.62;;
37903;SDS011;23738;50.422;18.758;2022-08-07T07:34:02;4.85;;;1.50;;
37903;SDS011;23738;50.422;18.758;2022-08-07T07:36:28;4.92;;;1.37;;
37903;SDS011;23738;50.422;18.758;2022-08-07T07:38:56;2.90;;;1.00;;
37903;SDS011;23738;50.422;18.758;2022-08-07T07:41:25;7.58;;;1.10;;
37903;SDS011;23738;50.422;18.758;2022-08-07T07:43:51;2.77;;;1.00;;
37903;SDS011;23738;50.422;18.758;2022-08-07T07:46:19;4.03;;;0.90;;
37903;SDS011;23738;50.422;18.758;2022-08-07T07:48:49;3.00;;;1.15;;
37903;SDS011;23738;50.422;18.758;2022-08-07T07:51:17;2.27;;;1.20;;
37903;SDS011;23738;50.422;18.758;2022-08-07T07:53:45;2.55;;;1.10;;
37903;SDS011;23738;50.422;18.758;2022-08-07T07:56:12;2.08;;;1.07;;
37903;SDS011;23738;50.422;18.758;2022-08-07T07:58:39;1.77;;;0.95;;
37903;SDS011;23738;50.422;18.758;2022-08-07T08:01:09;4.35;;;0.85;;
37903;SDS011;23738;50.422;18.758;2022-08-07T08:03:36;2.37;;;0.78;;
37903;SDS011;23738;50.422;18.758;2022-08-07T08:06:05;2.75;;;0.98;;
37903;SDS011;23738;50.422;18.758;2022-08-07T08:08:32;2.15;;;0.80;;
37903;SDS011;23738;50.422;18.758;2022-08-07T08:11:00;4.83;;;0.80;;
37903;SDS011;23738;50.422;18.758;2022-08-07T08:13:28;2.70;;;0.80;;
37903;SDS011;23738;50.422;18.758;2022-08-07T08:15:55;2.15;;;0.70;;
37903;SDS011;23738;50.422;18.758;2022-08-07T08:18:25;5.15;;;0.98;;
37903;SDS011;23738;50.422;18.758;2022-08-07T08:20:54;3.12;;;0.65;;
37903;SDS011;23738;50.422;18.758;2022-08-07T08:23:25;2.08;;;0.70;;
37903;SDS011;23738;50.422;18.758;2022-08-07T08:26:13;3.22;;;0.70;;
37903;SDS011;23738;50.422;18.758;2022-08-07T08:28:59;2.75;;;0.80;;
37903;SDS011;23738;50.422;18.758;2022-08-07T08:31:28;2.12;;;0.80;;
37903;SDS011;23738;50.422;18.758;2022-08-07T08:34:00;2.10;;;0.80;;
37903;SDS011;23738;50.422;18.758;2022-08-07T08:36:29;2.85;;;0.70;;
37903;SDS011;23738;50.422;18.758;2022-08-07T08:38:58;3.85;;;0.72;;
37903;SDS011;23738;50.422;18.758;2022-08-07T08:41:33;1.72;;;0.80;;
37903;SDS011;23738;50.422;18.758;2022-08-07T08:44:18;2.20;;;1.00;;
37903;SDS011;23738;50.422;18.758;2022-08-07T08:47:11;3.83;;;0.60;;
37903;SDS011;23738;50.422;18.758;2022-08-07T08:49:58;3.75;;;0.80;;
37903;SDS011;23738;50.422;18.758;2022-08-07T08:52:35;3.40;;;0.70;;
37903;SDS011;23738;50.422;18.758;2022-08-07T08:58:09;3.12;;;0.85;;
37903;SDS011;23738;50.422;18.758;2022-08-07T09:06:38;2.20;;;0.60;;
37903;SDS011;23738;50.422;18.758;2022-08-07T09:21:33;0.65;;;0.47;;
37903;SDS011;23738;50.422;18.758;2022-08-07T09:27:18;2.52;;;0.50;;
37903;SDS011;23738;50.422;18.758;2022-08-07T09:29:59;1.00;;;0.50;;
37903;SDS011;23738;50.422;18.758;2022-08-07T09:35:33;1.17;;;0.30;;
37903;SDS011;23738;50.422;18.758;2022-08-07T09:38:32;2.15;;;0.50;;
37903;SDS011;23738;50.422;18.758;2022-08-07T09:41:33;3.30;;;0.50;;
37903;SDS011;23738;50.422;18.758;2022-08-07T09:47:26;1.85;;;0.60;;
37903;SDS011;23738;50.422;18.758;2022-08-07T09:53:09;0.95;;;0.40;;
37903;SDS011;23738;50.422;18.758;2022-08-07T09:55:44;0.57;;;0.30;;
37903;SDS011;23738;50.422;18.758;2022-08-07T10:07:12;1.67;;;0.50;;
37903;SDS011;23738;50.422;18.758;2022-08-07T10:13:08;1.50;;;0.30;;
37903;SDS011;23738;50.422;18.758;2022-08-07T10:15:59;1.05;;;0.40;;
37903;SDS011;23738;50.422;18.758;2022-08-07T10:22:16;1.72;;;0.50;;
37903;SDS011;23738;50.422;18.758;2022-08-07T10:27:44;0.82;;;0.50;;
37903;SDS011;23738;50.422;18.758;2022-08-07T10:33:27;2.22;;;0.40;;
37903;SDS011;23738;50.422;18.758;2022-08-07T10:38:49;1.82;;;0.30;;
37903;SDS011;23738;50.422;18.758;2022-08-07T10:46:52;1.60;;;0.50;;
37903;SDS011;23738;50.422;18.758;2022-08-07T10:49:39;0.62;;;0.40;;
37903;SDS011;23738;50.422;18.758;2022-08-07T10:52:19;1.35;;;0.45;;
37903;SDS011;23738;50.422;18.758;2022-08-07T10:55:16;1.47;;;0.50;;
37903;SDS011;23738;50.422;18.758;2022-08-07T11:00:23;1.30;;;0.70;;
37903;SDS011;23738;50.422;18.758;2022-08-07T11:11:00;0.80;;;0.45;;
37903;SDS011;23738;50.422;18.758;2022-08-07T11:13:31;2.60;;;0.60;;
37903;SDS011;23738;50.422;18.758;2022-08-07T11:16:05;1.05;;;0.45;;
37903;SDS011;23738;50.422;18.758;2022-08-07T11:18:40;0.80;;;0.60;;
37903;SDS011;23738;50.422;18.758;2022-08-07T11:21:22;1.57;;;0.65;;
37903;SDS011;23738;50.422;18.758;2022-08-07T11:27:02;0.98;;;0.50;;
37903;SDS011;23738;50.422;18.758;2022-08-07T11:32:31;3.33;;;0.60;;
37903;SDS011;23738;50.422;18.758;2022-08-07T11:35:31;2.00;;;0.40;;
37903;SDS011;23738;50.422;18.758;2022-08-07T11:38:08;1.25;;;0.50;;
37903;SDS011;23738;50.422;18.758;2022-08-07T11:43:47;0.90;;;0.50;;
37903;SDS011;23738;50.422;18.758;2022-08-07T11:46:42;0.80;;;0.40;;
37903;SDS011;23738;50.422;18.758;2022-08-07T11:49:41;1.40;;;0.70;;
37903;SDS011;23738;50.422;18.758;2022-08-07T11:52:34;1.37;;;0.50;;
37903;SDS011;23738;50.422;18.758;2022-08-07T11:58:34;0.80;;;0.57;;
37903;SDS011;23738;50.422;18.758;2022-08-07T12:04:15;1.35;;;0.60;;
37903;SDS011;23738;50.422;18.758;2022-08-07T12:06:58;1.07;;;0.50;;
37903;SDS011;23738;50.422;18.758;2022-08-07T12:09:41;1.32;;;0.60;;
37903;SDS011;23738;50.422;18.758;2022-08-07T12:12:29;0.95;;;0.50;;
37903;SDS011;23738;50.422;18.758;2022-08-07T12:15:25;1.10;;;0.57;;
37903;SDS011;23738;50.422;18.758;2022-08-07T12:18:37;1.27;;;0.50;;
37903;SDS011;23738;50.422;18.758;2022-08-07T12:20:45;1.00;;;0.50;;
37903;SDS011;23738;50.422;18.758;2022-08-07T12:26:25;1.10;;;0.53;;
37903;SDS011;23738;50.422;18.758;2022-08-07T12:28:57;1.70;;;0.55;;
37903;SDS011;23738;50.422;18.758;2022-08-07T12:34:33;3.72;;;0.57;;
37903;SDS011;23738;50.422;18.758;2022-08-07T12:37:03;1.10;;;0.60;;
37903;SDS011;23738;50.422;18.758;2022-08-07T12:39:31;1.17;;;0.50;;
37903;SDS011;23738;50.422;18.758;2022-08-07T12:41:59;1.17;;;0.55;;
37903;SDS011;23738;50.422;18.758;2022-08-07T12:44:27;0.95;;;0.40;;
37903;SDS011;23738;50.422;18.758;2022-08-07T12:49:32;1.07;;;0.45;;
37903;SDS011;23738;50.422;18.758;2022-08-07T12:52:15;2.35;;;0.70;;
37903;SDS011;23738;50.422;18.758;2022-08-07T12:57:54;1.52;;;0.53;;
37903;SDS011;23738;50.422;18.758;2022-08-07T13:09:00;0.75;;;0.50;;
37903;SDS011;23738;50.422;18.758;2022-08-07T13:11:50;1.42;;;0.47;;
37903;SDS011;23738;50.422;18.758;2022-08-07T13:17:18;1.55;;;0.50;;
37903;SDS011;23738;50.422;18.758;2022-08-07T13:20:18;3.80;;;0.50;;
37903;SDS011;23738;50.422;18.758;2022-08-07T13:22:58;1.55;;;0.70;;
37903;SDS011;23738;50.422;18.758;2022-08-07T13:25:37;1.07;;;0.40;;
37903;SDS011;23738;50.422;18.758;2022-08-07T13:28:36;1.50;;;0.50;;
37903;SDS011;23738;50.422;18.758;2022-08-07T13:31:19;0.57;;;0.33;;
37903;SDS011;23738;50.422;18.758;2022-08-07T13:33:50;2.02;;;0.40;;
37903;SDS011;23738;50.422;18.758;2022-08-07T13:36:29;1.15;;;0.40;;
37903;SDS011;23738;50.422;18.758;2022-08-07T13:39:06;1.00;;;0.30;;
37903;SDS011;23738;50.422;18.758;2022-08-07T13:41:55;0.98;;;0.62;;
37903;SDS011;23738;50.422;18.758;2022-08-07T13:44:23;0.65;;;0.35;;
37903;SDS011;23738;50.422;18.758;2022-08-07T13:46:55;2.40;;;0.40;;
37903;SDS011;23738;50.422;18.758;2022-08-07T13:49:23;1.00;;;0.50;;
37903;SDS011;23738;50.422;18.758;2022-08-07T13:51:52;1.15;;;0.40;;
37903;SDS011;23738;50.422;18.758;2022-08-07T13:54:19;0.72;;;0.40;;
37903;SDS011;23738;50.422;18.758;2022-08-07T13:56:51;2.05;;;0.40;;
37903;SDS011;23738;50.422;18.758;2022-08-07T13:59:20;2.77;;;0.40;;
37903;SDS011;23738;50.422;18.758;2022-08-07T14:02:09;0.95;;;0.45;;
37903;SDS011;23738;50.422;18.758;2022-08-07T14:04:43;2.35;;;0.55;;
37903;SDS011;23738;50.422;18.758;2022-08-07T14:07:14;4.28;;;0.50;;
37903;SDS011;23738;50.422;18.758;2022-08-07T14:09:42;1.90;;;0.60;;
37903;SDS011;23738;50.422;18.758;2022-08-07T14:15:03;2.15;;;0.45;;
37903;SDS011;23738;50.422;18.758;2022-08-07T14:17:33;3.12;;;0.50;;
37903;SDS011;23738;50.422;18.758;2022-08-07T14:20:09;1.10;;;0.50;;
37903;SDS011;23738;50.422;18.758;2022-08-07T14:22:39;1.35;;;0.50;;
37903;SDS011;23738;50.422;18.758;2022-08-07T14:25:09;1.87;;;0.40;;
37903;SDS011;23738;50.422;18.758;2022-08-07T14:27:38;0.57;;;0.30;;
37903;SDS011;23738;50.422;18.758;2022-08-07T14:30:10;0.98;;;0.40;;
37903;SDS011;23738;50.422;18.758;2022-08-07T14:32:43;0.65;;;0.30;;
37903;SDS011;23738;50.422;18.758;2022-08-07T14:35:18;2.12;;;0.50;;
37903;SDS011;23738;50.422;18.758;2022-08-07T14:37:46;1.37;;;0.50;;
37903;SDS011;23738;50.422;18.758;2022-08-07T14:40:17;2.22;;;0.40;;
37903;SDS011;23738;50.422;18.758;2022-08-07T14:45:53;1.20;;;0.60;;
37903;SDS011;23738;50.422;18.758;2022-08-07T14:48:25;2.83;;;0.42;;
37903;SDS011;23738;50.422;18.758;2022-08-07T14:50:59;0.70;;;0.40;;
37903;SDS011;23738;50.422;18.758;2022-08-07T14:53:30;0.85;;;0.42;;
37903;SDS011;23738;50.422;18.758;2022-08-07T14:56:03;1.15;;;0.50;;
37903;SDS011;23738;50.422;18.758;2022-08-07T14:58:33;1.85;;;0.40;;
37903;SDS011;23738;50.422;18.758;2022-08-07T15:01:02;1.25;;;0.40;;
37903;SDS011;23738;50.422;18.758;2022-08-07T15:03:30;1.25;;;0.30;;
37903;SDS011;23738;50.422;18.758;2022-08-07T15:05:58;1.47;;;0.40;;
37903;SDS011;23738;50.422;18.758;2022-08-07T15:08:26;0.72;;;0.40;;
37903;SDS011;23738;50.422;18.758;2022-08-07T15:11:07;1.15;;;0.30;;
37903;SDS011;23738;50.422;18.758;2022-08-07T15:13:36;1.95;;;0.40;;
37903;SDS011;23738;50.422;18.758;2022-08-07T15:16:06;1.50;;;0.35;;
37903;SDS011;23738;50.422;18.758;2022-08-07T15:18:37;1.70;;;0.60;;
37903;SDS011;23738;50.422;18.758;2022-08-07T15:21:16;2.05;;;0.53;;
37903;SDS011;23738;50.422;18.758;2022-08-07T15:23:56;0.70;;;0.42;;
37903;SDS011;23738;50.422;18.758;2022-08-07T15:26:37;1.87;;;0.40;;
37903;SDS011;23738;50.422;18.758;2022-08-07T15:29:13;0.35;;;0.30;;
37903;SDS011;23738;50.422;18.758;2022-08-07T15:31:42;0.85;;;0.45;;
37903;SDS011;23738;50.422;18.758;2022-08-07T15:34:13;1.85;;;0.40;;
37903;SDS011;23738;50.422;18.758;2022-08-07T15:36:40;1.47;;;0.53;;
37903;SDS011;23738;50.422;18.758;2022-08-07T15:39:08;0.83;;;0.50;;
37903;SDS011;23738;50.422;18.758;2022-08-07T15:44:26;2.77;;;0.50;;
37903;SDS011;23738;50.422;18.758;2022-08-07T15:46:56;2.05;;;0.35;;
37903;SDS011;23738;50.422;18.758;2022-08-07T15:49:29;1.45;;;0.30;;
37903;SDS011;23738;50.422;18.758;2022-08-07T15:51:58;1.17;;;0.47;;
37903;SDS011;23738;50.422;18.758;2022-08-07T15:54:30;0.88;;;0.35;;
37903;SDS011;23738;50.422;18.758;2022-08-07T15:57:02;1.98;;;0.30;;
37903;SDS011;23738;50.422;18.758;2022-08-07T15:59:31;2.22;;;0.50;;
37903;SDS011;23738;50.422;18.758;2022-08-07T16:02:02;2.60;;;0.68;;
37903;SDS011;23738;50.422;18.758;2022-08-07T16:04:32;5.60;;;1.20;;
37903;SDS011;23738;50.422;18.758;2022-08-07T16:07:00;2.10;;;0.80;;
37903;SDS011;23738;50.422;18.758;2022-08-07T16:09:35;1.67;;;0.40;;
37903;SDS011;23738;50.422;18.758;2022-08-07T16:12:32;1.07;;;0.40;;
37903;SDS011;23738;50.422;18.758;2022-08-07T16:18:20;1.20;;;0.40;;
37903;SDS011;23738;50.422;18.758;2022-08-07T16:21:08;1.57;;;0.37;;
37903;SDS011;23738;50.422;18.758;2022-08-07T16:24:04;3.90;;;0.40;;
37903;SDS011;23738;50.422;18.758;2022-08-07T16:30:00;2.65;;;0.60;;
37903;SDS011;23738;50.422;18.758;2022-08-07T16:32:41;1.37;;;0.68;;
37903;SDS011;23738;50.422;18.758;2022-08-07T16:35:33;1.85;;;0.60;;
37903;SDS011;23738;50.422;18.758;2022-08-07T16:43:59;3.98;;;0.50;;
37903;SDS011;23738;50.422;18.758;2022-08-07T16:46:41;2.03;;;0.60;;
37903;SDS011;23738;50.422;18.758;2022-08-07T17:01:27;1.52;;;0.47;;
37903;SDS011;23738;50.422;18.758;2022-08-07T17:04:06;3.07;;;0.60;;
37903;SDS011;23738;50.422;18.758;2022-08-07T17:07:10;1.22;;;0.50;;
37903;SDS011;23738;50.422;18.758;2022-08-07T17:10:06;1.12;;;0.50;;
37903;SDS011;23738;50.422;18.758;2022-08-07T17:13:04;1.90;;;0.57;;
37903;SDS011;23738;50.422;18.758;2022-08-07T17:16:02;1.72;;;0.70;;
37903;SDS011;23738;50.422;18.758;2022-08-07T17:18:45;1.15;;;0.57;;
37903;SDS011;23738;50.422;18.758;2022-08-07T17:21:21;0.93;;;0.40;;
37903;SDS011;23738;50.422;18.758;2022-08-07T17:27:02;0.95;;;0.40;;
37903;SDS011;23738;50.422;18.758;2022-08-07T17:29:50;5.17;;;0.57;;
37903;SDS011;23738;50.422;18.758;2022-08-07T17:38:37;1.00;;;0.50;;
37903;SDS011;23738;50.422;18.758;2022-08-07T17:47:08;1.10;;;0.70;;
37903;SDS011;23738;50.422;18.758;2022-08-07T17:49:52;1.00;;;0.55;;
37903;SDS011;23738;50.422;18.758;2022-08-07T17:55:04;1.62;;;0.65;;
37903;SDS011;23738;50.422;18.758;2022-08-07T17:57:40;1.07;;;0.45;;
37903;SDS011;23738;50.422;18.758;2022-08-07T18:00:15;1.55;;;0.60;;